createdAt,value
2024-02-24T06:08:45.717Z,5.68
2024-02-24T06:09:45.684Z,5.70
2024-02-24T06:12:45.632Z,5.71
2024-02-24T06:13:45.634Z,5.73
2024-02-24T06:15:45.636Z,5.74
2024-02-24T06:16:45.595Z,5.74
2024-02-24T06:17:45.625Z,5.75
2024-02-24T06:18:45.729Z,5.75
2024-02-24T06:19:45.591Z,5.77
2024-02-24T06:20:45.593Z,5.77
2024-02-24T06:21:45.550Z,5.78
2024-02-24T06:22:45.525Z,5.78
2024-02-24T06:23:45.599Z,5.78
2024-02-24T06:24:45.510Z,5.81
2024-02-24T06:25:45.495Z,5.81
2024-02-24T06:26:45.521Z,5.82
2024-02-24T06:27:45.500Z,5.83
2024-02-24T06:28:45.478Z,5.85
2024-02-24T06:29:45.638Z,5.83
2024-02-24T06:30:45.448Z,5.85
2024-02-24T06:31:45.433Z,5.83
2024-02-24T06:32:45.472Z,5.82
2024-02-24T06:33:45.468Z,5.85
2024-02-24T06:34:45.464Z,5.85
2024-02-24T06:35:45.413Z,5.86
2024-02-24T06:36:45.373Z,5.86
2024-02-24T06:37:45.376Z,5.85
2024-02-24T06:38:45.431Z,5.85
2024-02-24T06:39:45.354Z,5.88
2024-02-24T06:40:46.074Z,5.88
2024-02-24T06:41:44.305Z,5.88
2024-02-24T06:42:45.313Z,5.88
2024-02-24T06:43:45.304Z,5.89
2024-02-24T06:44:45.349Z,5.88
2024-02-24T06:45:45.314Z,5.89
2024-02-24T06:46:45.272Z,5.89
2024-02-24T06:47:45.367Z,5.91
2024-02-24T06:48:45.369Z,5.93
2024-02-24T06:49:45.273Z,5.92
2024-02-24T06:50:45.302Z,5.92
2024-02-24T06:51:45.218Z,5.93
2024-02-24T06:52:45.209Z,5.93
2024-02-24T06:53:45.252Z,5.93
2024-02-24T06:54:45.196Z,5.93
2024-02-24T06:55:45.189Z,5.95
2024-02-24T06:56:45.213Z,5.95
2024-02-24T06:57:45.166Z,5.95
2024-02-24T06:58:45.180Z,5.96
2024-02-24T06:59:45.151Z,5.96
2024-02-24T07:00:45.134Z,5.96
2024-02-24T07:01:45.112Z,5.95
2024-02-24T07:02:45.177Z,5.96
2024-02-24T07:03:45.147Z,5.96
2024-02-24T07:04:45.092Z,5.96
2024-02-24T07:05:45.071Z,5.98
2024-02-24T07:06:45.092Z,5.98
2024-02-24T07:07:45.051Z,6.00
2024-02-24T07:08:45.076Z,6.00
2024-02-24T07:09:45.027Z,6.01
2024-02-24T07:10:45.056Z,6.00
2024-02-24T07:11:45.086Z,6.00
2024-02-24T07:12:44.999Z,6.01
2024-02-24T07:13:44.980Z,6.03
2024-02-24T07:14:45.000Z,6.03
2024-02-24T07:15:44.956Z,6.03
2024-02-24T07:16:44.942Z,6.03
2024-02-24T07:17:45.000Z,6.04
2024-02-24T07:18:44.982Z,6.04
2024-02-24T07:19:44.914Z,6.07
2024-02-24T07:20:44.942Z,6.07
2024-02-24T07:21:44.891Z,6.07
2024-02-24T07:22:44.880Z,6.09
2024-02-24T07:23:44.902Z,6.10
2024-02-24T07:24:44.856Z,6.10
2024-02-24T07:25:44.853Z,6.11
2024-02-24T07:26:49.065Z,6.11
2024-02-24T07:27:44.822Z,6.11
2024-02-24T07:28:44.816Z,6.13
2024-02-24T07:29:44.867Z,6.13
2024-02-24T07:30:44.804Z,6.14
2024-02-24T07:31:44.824Z,6.16
2024-02-24T07:32:46.866Z,6.18
2024-02-24T07:33:44.918Z,6.18
2024-02-24T07:34:44.868Z,6.19
2024-02-24T07:35:44.804Z,6.19
2024-02-24T07:36:44.730Z,6.16
2024-02-24T07:37:44.741Z,6.13
2024-02-24T07:38:44.753Z,6.13
2024-02-24T07:39:44.740Z,6.10
2024-02-24T07:40:44.688Z,6.11
2024-02-24T07:41:44.706Z,6.13
2024-02-24T07:42:44.669Z,6.14
2024-02-24T07:43:44.658Z,6.16
2024-02-24T07:44:44.699Z,6.19
2024-02-24T07:45:44.627Z,6.21
2024-02-24T07:46:44.621Z,6.21
2024-02-24T07:47:44.683Z,6.21
2024-02-24T07:48:44.643Z,6.22
2024-02-24T07:49:44.622Z,6.22
2024-02-24T07:50:44.613Z,6.24
2024-02-24T07:51:44.565Z,6.22
2024-02-24T07:52:46.295Z,6.25
2024-02-24T07:53:44.585Z,6.25
2024-02-24T07:54:44.542Z,6.24
2024-02-24T07:55:44.551Z,6.29
2024-02-24T07:56:44.531Z,6.31
2024-02-24T07:57:44.524Z,6.34
2024-02-24T07:58:44.496Z,6.37
2024-02-24T07:59:44.530Z,6.39
2024-02-24T08:00:49.950Z,6.39
2024-02-24T08:01:44.462Z,6.39
2024-02-24T08:02:44.508Z,6.42
2024-02-24T08:03:44.446Z,6.42
2024-02-24T08:04:44.468Z,6.40
2024-02-24T08:05:44.509Z,6.39
2024-02-24T08:06:44.485Z,6.40
2024-02-24T08:07:44.397Z,6.40
2024-02-24T08:08:44.411Z,6.39
2024-02-24T08:09:44.378Z,6.39
2024-02-24T08:10:44.358Z,6.37
2024-02-24T08:11:44.543Z,6.39
2024-02-24T08:12:44.455Z,6.42
2024-02-24T08:13:44.334Z,6.45
2024-02-24T08:14:44.358Z,6.47
2024-02-24T08:15:44.318Z,6.52
2024-02-24T08:16:44.298Z,6.55
2024-02-24T08:17:44.361Z,6.53
2024-02-24T08:18:44.367Z,6.58
2024-02-24T08:19:44.314Z,6.58
2024-02-24T08:20:44.279Z,6.57
2024-02-24T08:21:44.250Z,6.58
2024-02-24T08:22:44.232Z,6.61
2024-02-24T08:23:44.275Z,6.64
2024-02-24T08:24:44.214Z,6.67
2024-02-24T08:25:44.228Z,6.71
2024-02-24T08:26:44.245Z,6.76
2024-02-24T08:27:44.183Z,6.78
2024-02-24T08:28:44.174Z,6.79
2024-02-24T08:29:44.195Z,6.79
2024-02-24T08:30:44.205Z,6.78
2024-02-24T08:31:44.222Z,6.82
2024-02-24T08:32:45.738Z,6.82
2024-02-24T08:33:44.335Z,6.82
2024-02-24T08:34:44.145Z,6.82
2024-02-24T08:35:44.218Z,6.82
2024-02-24T08:36:44.129Z,6.82
2024-02-24T08:37:44.080Z,6.85
2024-02-24T08:38:44.086Z,6.88
2024-02-24T08:39:44.070Z,6.90
2024-02-24T08:40:44.042Z,6.89
2024-02-24T08:41:44.083Z,6.94
2024-02-24T08:42:44.017Z,6.95
2024-02-24T08:43:44.007Z,6.94
2024-02-24T08:44:44.032Z,6.89
2024-02-24T08:45:43.977Z,6.89
2024-02-24T08:46:43.974Z,6.89
2024-02-24T08:48:43.982Z,6.89
2024-02-24T08:49:43.947Z,6.88
2024-02-24T08:50:43.981Z,6.89
2024-02-24T08:51:43.922Z,6.89
2024-02-24T08:52:50.173Z,6.90
2024-02-24T08:53:43.996Z,6.89
2024-02-24T08:54:43.883Z,6.94
2024-02-24T08:55:43.873Z,6.89
2024-02-24T08:56:43.889Z,6.94
2024-02-24T08:57:43.866Z,6.90
2024-02-24T08:58:43.838Z,6.88
2024-02-24T08:59:43.863Z,6.86
2024-02-24T09:00:43.845Z,6.88
2024-02-24T09:01:43.807Z,6.88
2024-02-24T09:02:43.835Z,6.90
2024-02-24T09:03:43.841Z,6.90
2024-02-24T09:04:43.774Z,6.98
2024-02-24T09:05:43.907Z,7.04
2024-02-24T09:06:43.914Z,7.15
2024-02-24T09:07:43.757Z,7.26
2024-02-24T09:10:43.715Z,7.60
2024-02-24T09:11:43.799Z,7.74
2024-02-24T09:12:43.691Z,7.78
2024-02-24T09:13:43.678Z,7.81
2024-02-24T09:14:43.689Z,7.89
2024-02-24T09:15:43.665Z,7.98
2024-02-24T09:16:43.649Z,7.99
2024-02-24T09:18:43.695Z,7.92
2024-02-24T09:19:43.660Z,7.88
2024-02-24T09:21:43.597Z,7.86
2024-02-24T09:22:43.594Z,7.86
2024-02-24T09:23:43.612Z,7.89
2024-02-24T09:24:43.560Z,7.95
2024-02-24T09:25:43.552Z,8.01
2024-02-24T09:26:43.606Z,8.06
2024-02-24T09:28:43.528Z,7.98
2024-02-24T09:29:43.544Z,8.01
2024-02-24T09:30:43.498Z,8.01
2024-02-24T09:34:43.477Z,7.96
2024-02-24T09:36:43.436Z,8.20
2024-02-24T09:37:43.417Z,8.29
2024-02-24T09:40:43.388Z,8.50
2024-02-24T09:41:43.400Z,8.55
2024-02-24T09:42:43.386Z,8.57
2024-02-24T09:44:43.381Z,8.69
2024-02-24T09:47:43.390Z,8.76
2024-02-24T09:49:43.350Z,8.87
2024-02-24T09:50:43.384Z,8.87
2024-02-24T09:51:45.722Z,8.79
2024-02-24T09:52:43.511Z,8.68
2024-02-24T09:53:43.300Z,8.62
2024-02-24T09:54:43.244Z,8.65
2024-02-24T09:55:43.225Z,8.66
2024-02-24T09:57:43.207Z,8.63
2024-02-24T09:58:43.194Z,8.62
2024-02-24T09:59:43.202Z,8.60
2024-02-24T10:01:43.166Z,8.62
2024-02-24T10:02:43.230Z,8.65
2024-02-24T10:04:43.155Z,8.71
2024-02-24T10:06:43.161Z,8.87
2024-02-24T10:07:43.106Z,8.94
2024-02-24T10:08:43.142Z,8.99
2024-02-24T10:09:43.076Z,8.93
2024-02-24T10:10:43.126Z,8.94
2024-02-24T10:11:43.155Z,8.94
2024-02-24T10:12:43.045Z,8.94
2024-02-24T10:13:44.371Z,8.94
2024-02-24T10:14:43.103Z,8.86
2024-02-24T10:15:43.008Z,8.73
2024-02-24T10:16:43.009Z,8.71
2024-02-24T10:18:43.042Z,8.66
2024-02-24T10:20:43.040Z,8.42
2024-02-24T10:21:42.946Z,8.34
2024-02-24T10:23:42.920Z,8.35
2024-02-24T10:24:42.918Z,8.34
2024-02-24T10:25:42.901Z,8.37
2024-02-24T10:26:42.921Z,8.42
2024-02-24T10:29:42.920Z,8.54
2024-02-24T10:30:42.843Z,8.58
2024-02-24T10:31:42.835Z,8.66
2024-02-24T10:32:43.105Z,8.73
2024-02-24T10:33:42.956Z,8.78
2024-02-24T10:34:42.876Z,8.83
2024-02-24T10:35:42.901Z,8.81
2024-02-24T10:36:42.777Z,8.78
2024-02-24T10:37:57.182Z,8.76
2024-02-24T10:38:48.314Z,8.72
2024-02-24T10:39:42.783Z,8.62
2024-02-24T10:40:42.742Z,8.55
2024-02-24T10:41:42.767Z,8.54
2024-02-24T10:42:42.720Z,8.54
2024-02-24T10:43:42.702Z,8.45
2024-02-24T10:44:42.704Z,8.37
2024-02-24T10:45:42.745Z,8.25
2024-02-24T10:46:42.705Z,8.13
2024-02-24T10:47:42.736Z,8.03
2024-02-24T10:48:43.731Z,7.96
2024-02-24T10:49:42.729Z,7.95
2024-02-24T10:50:42.674Z,7.92
2024-02-24T10:51:42.657Z,7.89
2024-02-24T10:52:42.643Z,7.83
2024-02-24T10:53:42.599Z,7.76
2024-02-24T10:54:42.580Z,7.76
2024-02-24T10:55:42.580Z,7.74
2024-02-24T10:56:42.574Z,7.74
2024-02-24T10:57:42.560Z,7.71
2024-02-24T10:58:42.548Z,7.71
2024-02-24T10:59:42.572Z,7.65
2024-02-24T11:00:42.550Z,7.70
2024-02-24T11:01:42.532Z,7.68
2024-02-24T11:02:42.586Z,7.70
2024-02-24T11:03:42.529Z,7.74
2024-02-24T11:04:42.505Z,7.80
2024-02-24T11:05:42.518Z,7.81
2024-02-24T11:06:42.553Z,7.84
2024-02-24T11:07:42.575Z,7.84
2024-02-24T11:08:42.732Z,7.86
2024-02-24T11:09:42.430Z,7.83
2024-02-24T11:10:42.412Z,7.86
2024-02-24T11:11:42.550Z,7.91
2024-02-24T11:12:42.459Z,7.96
2024-02-24T11:13:46.674Z,7.99
2024-02-24T11:14:42.399Z,8.06
2024-02-24T11:15:42.356Z,8.07
2024-02-24T11:16:42.354Z,8.16
2024-02-24T11:17:42.380Z,8.27
2024-02-24T11:18:42.405Z,8.37
2024-02-24T11:19:42.410Z,8.50
2024-02-24T11:20:41.459Z,8.60
2024-02-24T11:21:41.219Z,8.62
2024-02-24T11:22:42.286Z,8.65
2024-02-24T11:23:42.281Z,8.71
2024-02-24T11:24:42.263Z,8.76
2024-02-24T11:25:42.262Z,8.79
2024-02-24T11:26:42.259Z,8.87
2024-02-24T11:28:42.240Z,8.96
2024-02-24T11:29:42.274Z,9.05
2024-02-24T11:30:42.200Z,9.14
2024-02-24T11:31:42.208Z,9.15
2024-02-24T11:32:42.215Z,9.15
2024-02-24T11:33:42.274Z,9.29
2024-02-24T11:34:42.626Z,9.44
2024-02-24T11:35:42.220Z,9.49
2024-02-24T11:36:42.186Z,9.56
2024-02-24T11:37:42.128Z,9.66
2024-02-24T11:38:42.197Z,9.77
2024-02-24T11:39:44.649Z,9.85
2024-02-24T11:40:42.086Z,9.88
2024-02-24T11:41:42.553Z,9.96
2024-02-24T11:42:42.066Z,10.01
2024-02-24T11:43:42.075Z,10.01
2024-02-24T11:44:42.040Z,9.93
2024-02-24T11:45:44.296Z,9.93
2024-02-24T11:46:42.059Z,9.97
2024-02-24T11:47:42.099Z,9.97
2024-02-24T11:48:42.217Z,10.06
2024-02-24T11:49:42.112Z,10.18
2024-02-24T11:50:42.016Z,10.24
2024-02-24T11:51:44.468Z,10.19
2024-02-24T11:52:41.963Z,10.14
2024-02-24T11:53:41.957Z,10.09
2024-02-24T11:54:41.938Z,10.12
2024-02-24T11:55:41.927Z,10.07
2024-02-24T11:56:41.976Z,9.88
2024-02-24T11:57:41.896Z,9.66
2024-02-24T11:58:41.894Z,9.52
2024-02-24T11:59:42.062Z,9.39
2024-02-24T12:00:41.892Z,9.34
2024-02-24T12:01:41.857Z,9.37
2024-02-24T12:02:41.876Z,9.31
2024-02-24T12:03:41.848Z,9.33
2024-02-24T12:04:41.894Z,9.41
2024-02-24T12:05:41.835Z,9.47
2024-02-24T12:06:41.830Z,9.51
2024-02-24T12:07:41.790Z,9.62
2024-02-24T12:08:41.828Z,9.72
2024-02-24T12:09:41.784Z,9.81
2024-02-24T12:10:41.811Z,9.88
2024-02-24T12:11:41.883Z,9.96
2024-02-24T12:12:41.736Z,9.97
2024-02-24T12:13:41.722Z,9.96
2024-02-24T12:14:41.721Z,9.96
2024-02-24T12:15:41.703Z,9.99
2024-02-24T12:16:41.702Z,9.97
2024-02-24T12:17:41.741Z,10.00
2024-02-24T12:18:41.802Z,9.88
2024-02-24T12:19:41.682Z,9.77
2024-02-24T12:20:41.751Z,9.69
2024-02-24T12:21:41.638Z,9.57
2024-02-24T12:22:41.632Z,9.63
2024-02-24T12:23:41.754Z,9.67
2024-02-24T12:24:41.612Z,9.77
2024-02-24T12:25:41.607Z,9.74
2024-02-24T12:26:41.633Z,9.83
2024-02-24T12:27:41.580Z,9.91
2024-02-24T12:28:41.581Z,9.99
2024-02-24T12:29:41.666Z,10.04
2024-02-24T12:30:41.570Z,10.07
2024-02-24T12:31:41.540Z,10.12
2024-02-24T12:32:41.571Z,10.17
2024-02-24T12:33:41.660Z,10.26
2024-02-24T12:34:41.525Z,10.36
2024-02-24T12:35:41.551Z,10.33
2024-02-24T12:36:41.479Z,10.33
2024-02-24T12:37:41.465Z,10.22
2024-02-24T12:38:41.713Z,10.12
2024-02-24T12:39:41.448Z,10.14
2024-02-24T12:40:41.440Z,10.06
2024-02-24T12:41:41.480Z,10.01
2024-02-24T12:42:41.418Z,9.86
2024-02-24T12:43:41.421Z,9.66
2024-02-24T12:44:41.486Z,9.60
2024-02-24T12:45:41.401Z,9.56
2024-02-24T12:46:41.376Z,9.55
2024-02-24T12:47:41.399Z,9.48
2024-02-24T12:48:44.497Z,9.39
2024-02-24T12:49:41.418Z,9.37
2024-02-24T12:50:41.396Z,9.24
2024-02-24T12:51:41.316Z,9.09
2024-02-24T12:52:41.304Z,9.06
2024-02-24T12:53:41.326Z,9.01
2024-02-24T12:54:41.294Z,8.97
2024-02-24T12:55:41.280Z,9.04
2024-02-24T12:56:41.338Z,8.97
2024-02-24T12:57:41.254Z,8.99
2024-02-24T12:58:41.238Z,9.02
2024-02-24T12:59:41.289Z,9.05
2024-02-24T13:00:41.258Z,9.05
2024-02-24T13:01:41.276Z,9.02
2024-02-24T13:02:41.359Z,9.01
2024-02-24T13:03:41.242Z,9.01
2024-02-24T13:04:41.174Z,8.97
2024-02-24T13:05:41.243Z,8.97
2024-02-24T13:06:41.392Z,9.01
2024-02-24T13:07:41.147Z,9.02
2024-02-24T13:08:41.229Z,8.97
2024-02-24T13:09:41.184Z,8.91
2024-02-24T13:10:41.135Z,8.99
2024-02-24T13:11:41.153Z,8.97
2024-02-24T13:12:41.091Z,9.02
2024-02-24T13:13:41.071Z,9.09
2024-02-24T13:14:41.238Z,9.14
2024-02-24T13:15:41.051Z,9.17
2024-02-24T13:16:41.047Z,9.15
2024-02-24T13:17:41.086Z,9.08
2024-02-24T13:18:41.186Z,9.01
2024-02-24T13:19:41.096Z,8.94
2024-02-24T13:20:41.033Z,8.86
2024-02-24T13:21:41.020Z,8.83
2024-02-24T13:22:40.980Z,8.84
2024-02-24T13:23:40.978Z,8.81
2024-02-24T13:24:40.970Z,8.78
2024-02-24T13:25:43.567Z,8.78
2024-02-24T13:26:41.089Z,8.79
2024-02-24T13:27:40.927Z,8.81
2024-02-24T13:28:40.926Z,8.79
2024-02-24T13:29:41.009Z,8.83
2024-02-24T13:30:40.886Z,8.87
2024-02-24T13:31:40.873Z,8.90
2024-02-24T13:32:40.979Z,8.91
2024-02-24T13:33:40.949Z,8.86
2024-02-24T13:34:40.880Z,8.88
2024-02-24T13:35:40.866Z,8.91
2024-02-24T13:36:40.825Z,8.93
2024-02-24T13:37:40.816Z,8.94
2024-02-24T13:38:40.820Z,8.97
2024-02-24T13:39:40.792Z,9.02
2024-02-24T13:40:40.792Z,9.06
2024-02-24T13:41:40.786Z,9.14
2024-02-24T13:42:40.755Z,9.15
2024-02-24T13:43:40.750Z,9.19
2024-02-24T13:44:40.779Z,9.23
2024-02-24T13:45:40.720Z,9.27
2024-02-24T13:46:40.708Z,9.31
2024-02-24T13:47:40.821Z,9.38
2024-02-24T13:48:40.815Z,9.42
2024-02-24T13:49:40.910Z,9.42
2024-02-24T13:50:40.690Z,9.44
2024-02-24T13:51:40.670Z,9.41
2024-02-24T13:52:40.652Z,9.42
2024-02-24T13:53:40.644Z,9.37
2024-02-24T13:54:40.633Z,9.37
2024-02-24T13:55:40.622Z,9.37
2024-02-24T13:56:40.824Z,9.38
2024-02-24T13:57:40.595Z,9.37
2024-02-24T13:58:40.582Z,9.39
2024-02-24T13:59:40.666Z,9.41
2024-02-24T14:00:40.576Z,9.39
2024-02-24T14:01:40.549Z,9.42
2024-02-24T14:02:40.603Z,9.45
2024-02-24T14:03:40.589Z,9.48
2024-02-24T14:04:40.519Z,9.44
2024-02-24T14:05:40.600Z,9.38
2024-02-24T14:06:40.602Z,9.30
2024-02-24T14:07:40.485Z,9.30
2024-02-24T14:08:40.479Z,9.37
2024-02-24T14:09:40.452Z,9.39
2024-02-24T14:10:40.452Z,9.47
2024-02-24T14:11:40.520Z,9.52
2024-02-24T14:12:40.434Z,9.57
2024-02-24T14:13:40.408Z,9.60
2024-02-24T14:14:40.445Z,9.62
2024-02-24T14:15:40.399Z,9.62
2024-02-24T14:16:40.382Z,9.62
2024-02-24T14:17:40.452Z,9.62
2024-02-24T14:18:40.488Z,9.48
2024-02-24T14:19:40.460Z,9.44
2024-02-24T14:20:40.445Z,9.42
2024-02-24T14:21:40.366Z,9.34
2024-02-24T14:22:40.319Z,9.23
2024-02-24T14:23:40.349Z,9.23
2024-02-24T14:24:40.299Z,9.19
2024-02-24T14:25:40.278Z,9.20
2024-02-24T14:26:40.382Z,9.19
2024-02-24T14:27:40.273Z,9.22
2024-02-24T14:28:40.258Z,9.24
2024-02-24T14:29:40.254Z,9.26
2024-02-24T14:30:40.220Z,9.29
2024-02-24T14:31:40.218Z,9.38
2024-02-24T14:32:40.270Z,9.42
2024-02-24T14:33:40.336Z,9.45
2024-02-24T14:34:40.231Z,9.48
2024-02-24T14:35:40.233Z,9.47
2024-02-24T14:36:40.209Z,9.47
2024-02-24T14:37:40.150Z,9.47
2024-02-24T14:38:40.205Z,9.49
2024-02-24T14:39:40.134Z,9.49
2024-02-24T14:40:40.121Z,9.52
2024-02-24T14:41:40.186Z,9.49
2024-02-24T14:42:40.089Z,9.42
2024-02-24T14:43:40.094Z,9.41
2024-02-24T14:44:40.100Z,9.44
2024-02-24T14:45:40.056Z,9.45
2024-02-24T14:46:40.046Z,9.41
2024-02-24T14:47:40.081Z,9.37
2024-02-24T14:48:40.152Z,9.34
2024-02-24T14:49:40.223Z,9.29
2024-02-24T14:50:40.048Z,9.26
2024-02-24T14:51:39.996Z,9.23
2024-02-24T14:52:39.983Z,9.19
2024-02-24T14:53:40.054Z,9.12
2024-02-24T14:54:43.021Z,9.11
2024-02-24T14:55:39.946Z,9.09
2024-02-24T14:56:39.983Z,9.06
2024-02-24T14:57:39.932Z,9.04
2024-02-24T14:58:39.920Z,8.99
2024-02-24T14:59:39.952Z,8.94
2024-02-24T15:00:39.918Z,8.93
2024-02-24T15:01:39.904Z,8.88
2024-02-24T15:02:48.831Z,8.86
2024-02-24T15:03:39.928Z,8.86
2024-02-24T15:04:39.990Z,8.86
2024-02-24T15:05:40.106Z,8.81
2024-02-24T15:06:39.916Z,8.81
2024-02-24T15:07:42.792Z,8.81
2024-02-24T15:08:39.852Z,8.87
2024-02-24T15:09:39.800Z,8.91
2024-02-24T15:10:39.799Z,8.90
2024-02-24T15:11:39.948Z,8.84
2024-02-24T15:12:39.801Z,8.84
2024-02-24T15:13:39.783Z,8.79
2024-02-24T15:14:39.777Z,8.68
2024-02-24T15:15:39.735Z,8.60
2024-02-24T15:16:39.720Z,8.54
2024-02-24T15:17:39.788Z,8.55
2024-02-24T15:18:39.843Z,8.55
2024-02-24T15:19:39.722Z,8.53
2024-02-24T15:20:39.706Z,8.53
2024-02-24T15:21:39.728Z,8.55
2024-02-24T15:22:39.655Z,8.58
2024-02-24T15:23:39.664Z,8.55
2024-02-24T15:24:39.653Z,8.51
2024-02-24T15:25:39.631Z,8.47
2024-02-24T15:26:39.637Z,8.44
2024-02-24T15:27:39.615Z,8.39
2024-02-24T15:28:39.595Z,8.34
2024-02-24T15:29:39.641Z,8.32
2024-02-24T15:30:39.632Z,8.34
2024-02-24T15:31:39.738Z,8.32
2024-02-24T15:32:39.643Z,8.35
2024-02-24T15:33:39.783Z,8.42
2024-02-24T15:35:39.566Z,8.47
2024-02-24T15:36:39.561Z,8.45
2024-02-24T15:37:39.562Z,8.51
2024-02-24T15:38:39.630Z,8.53
2024-02-24T15:39:39.563Z,8.53
2024-02-24T15:40:42.087Z,8.55
2024-02-24T15:41:39.746Z,8.55
2024-02-24T15:42:39.450Z,8.58
2024-02-24T15:43:39.430Z,8.57
2024-02-24T15:44:39.458Z,8.54
2024-02-24T15:45:39.412Z,8.50
2024-02-24T15:46:39.391Z,8.42
2024-02-24T15:47:39.497Z,8.39
2024-02-24T15:48:39.491Z,8.39
2024-02-24T15:49:39.406Z,8.35
2024-02-24T15:50:39.388Z,8.32
2024-02-24T15:51:39.408Z,8.32
2024-02-24T15:52:39.345Z,8.31
2024-02-24T15:53:39.377Z,8.25
2024-02-24T15:54:39.327Z,8.25
2024-02-24T15:55:39.305Z,8.25
2024-02-24T15:56:39.552Z,8.20
2024-02-24T15:57:39.283Z,8.19
2024-02-24T15:58:39.276Z,8.20
2024-02-24T15:59:39.353Z,8.24
2024-02-24T16:00:39.260Z,8.28
2024-02-24T16:01:39.242Z,8.28
2024-02-24T16:02:39.275Z,8.29
2024-02-24T16:03:39.228Z,8.25
2024-02-24T16:04:39.342Z,8.21
2024-02-24T16:05:39.350Z,8.21
2024-02-24T16:06:39.227Z,8.24
2024-02-24T16:07:39.178Z,8.25
2024-02-24T16:08:39.230Z,8.25
2024-02-24T16:09:39.154Z,8.20
2024-02-24T16:10:39.152Z,8.19
2024-02-24T16:11:39.260Z,8.13
2024-02-24T16:12:39.122Z,8.07
2024-02-24T16:13:39.116Z,8.01
2024-02-24T16:14:39.133Z,7.99
2024-02-24T16:15:39.120Z,7.98
2024-02-24T16:16:39.262Z,7.93
2024-02-24T16:17:39.196Z,7.95
2024-02-24T16:18:39.279Z,7.93
2024-02-24T16:19:39.155Z,7.93
2024-02-24T16:20:39.073Z,7.89
2024-02-24T16:21:39.030Z,7.83
2024-02-24T16:22:39.086Z,7.80
2024-02-24T16:23:39.009Z,7.77
2024-02-24T16:24:39.006Z,7.71
2024-02-24T16:25:38.983Z,7.65
2024-02-24T16:26:39.089Z,7.65
2024-02-24T16:27:38.961Z,7.66
2024-02-24T16:28:38.967Z,7.65
2024-02-24T16:29:38.950Z,7.60
2024-02-24T16:30:38.941Z,7.60
2024-02-24T16:31:38.925Z,7.59
2024-02-24T16:32:39.073Z,7.60
2024-02-24T16:33:39.161Z,7.60
2024-02-24T16:34:38.916Z,7.60
2024-02-24T16:35:38.899Z,7.62
2024-02-24T16:36:38.958Z,7.63
2024-02-24T16:37:38.859Z,7.63
2024-02-24T16:38:38.927Z,7.65
2024-02-24T16:39:38.907Z,7.66
2024-02-24T16:40:38.821Z,7.66
2024-02-24T16:41:38.869Z,7.65
2024-02-24T16:42:38.861Z,7.65
2024-02-24T16:43:38.799Z,7.63
2024-02-24T16:44:38.818Z,7.63
2024-02-24T16:45:38.778Z,7.63
2024-02-24T16:46:38.772Z,7.63
2024-02-24T16:47:38.806Z,7.63
2024-02-24T16:48:38.816Z,7.60
2024-02-24T16:49:38.752Z,7.56
2024-02-24T16:50:38.800Z,7.55
2024-02-24T16:51:38.711Z,7.56
2024-02-24T16:52:38.697Z,7.53
2024-02-24T16:53:38.786Z,7.50
2024-02-24T16:54:39.316Z,7.49
2024-02-24T16:55:38.677Z,7.47
2024-02-24T16:56:38.703Z,7.44
2024-02-24T17:03:38.598Z,7.38
2024-02-24T17:04:38.566Z,7.37
2024-02-24T17:05:38.666Z,7.37
2024-02-24T17:08:38.600Z,7.31
2024-02-24T17:09:38.536Z,7.31
2024-02-24T17:10:38.501Z,7.29
2024-02-24T17:11:38.665Z,7.32
2024-02-24T17:12:38.651Z,7.34
2024-02-24T17:13:38.484Z,7.35
2024-02-24T17:14:38.510Z,7.34
2024-02-24T17:15:38.457Z,7.31
2024-02-24T17:16:38.441Z,7.29
2024-02-24T17:17:38.519Z,7.31
2024-02-24T17:18:38.540Z,7.32
2024-02-24T17:19:38.559Z,7.32
2024-02-24T17:22:38.365Z,7.34
2024-02-24T17:23:38.494Z,7.34
2024-02-24T17:24:38.362Z,7.32
